createdAt,value
2023-02-24T00:00:55.305Z,17.98
2023-02-24T00:02:04.738Z,18.13
2023-02-24T00:03:11.151Z,17.98
2023-02-24T00:04:13.782Z,17.77
2023-02-24T00:05:16.567Z,17.42
2023-02-24T00:06:18.473Z,17.33
2023-02-24T00:07:21.358Z,18.58
2023-02-24T00:08:23.112Z,17.30
2023-02-24T00:09:27.720Z,17.65
2023-02-24T00:10:29.973Z,17.38
2023-02-24T00:11:33.058Z,17.70
2023-02-24T00:12:35.026Z,18.55
2023-02-24T00:13:37.943Z,17.75
2023-02-24T00:14:41.473Z,18.33
2023-02-24T00:15:44.222Z,18.48
2023-02-24T00:16:47.157Z,18.38
2023-02-24T00:17:51.320Z,17.30
2023-02-24T00:18:53.147Z,18.23
2023-02-24T00:19:56.088Z,17.05
2023-02-24T00:21:03.960Z,16.85
2023-02-24T00:22:08.529Z,17.00
2023-02-24T00:23:10.334Z,18.25
2023-02-24T00:24:13.190Z,17.20
2023-02-24T00:25:15.105Z,17.45
2023-02-24T00:26:18.473Z,17.92
2023-02-24T00:27:20.283Z,16.67
2023-02-24T00:28:23.051Z,18.60
2023-02-24T00:29:26.207Z,17.08
2023-02-24T00:30:30.117Z,16.92
2023-02-24T00:31:33.596Z,18.40
2023-02-24T00:32:36.440Z,17.75
2023-02-24T00:33:41.017Z,16.88
2023-02-24T00:34:43.340Z,17.23
2023-02-24T00:35:47.352Z,17.27
2023-02-24T00:36:49.454Z,17.23
2023-02-24T00:37:54.374Z,17.02
2023-02-24T00:38:57.573Z,17.67
2023-02-24T00:40:00.339Z,17.80
2023-02-24T00:41:07.997Z,16.60
2023-02-24T00:42:12.349Z,17.58
2023-02-24T00:43:14.227Z,18.77
2023-02-24T00:44:16.973Z,16.92
2023-02-24T00:45:18.870Z,18.23
2023-02-24T00:46:25.675Z,16.90
2023-02-24T00:47:27.454Z,17.75
2023-02-24T00:48:31.634Z,18.50
2023-02-24T00:49:42.007Z,16.58
2023-02-24T00:50:44.934Z,17.10
2023-02-24T00:51:48.687Z,16.67
2023-02-24T00:52:52.454Z,17.60
2023-02-24T00:53:56.936Z,18.02
2023-02-24T00:54:59.835Z,16.90
2023-02-24T00:56:07.071Z,16.75
2023-02-24T00:57:10.240Z,17.17
2023-02-24T00:58:12.102Z,17.13
2023-02-24T00:59:16.647Z,17.40
2023-02-24T01:00:19.813Z,16.95
2023-02-24T01:01:24.321Z,17.42
2023-02-24T01:02:26.691Z,16.23
2023-02-24T01:03:29.733Z,16.23
2023-02-24T01:04:53.228Z,18.02
2023-02-24T01:05:56.541Z,17.02
2023-02-24T01:07:00.217Z,17.10
2023-02-24T01:08:03.273Z,18.13
2023-02-24T01:09:08.253Z,17.45
2023-02-24T01:10:12.544Z,17.58
2023-02-24T01:11:33.155Z,16.52
2023-02-24T01:12:38.681Z,16.55
2023-02-24T01:13:40.542Z,18.83
2023-02-24T01:14:45.567Z,18.55
2023-02-24T01:15:48.686Z,17.27
2023-02-24T01:16:51.595Z,19.45
2023-02-24T01:17:54.312Z,17.38
2023-02-24T01:18:56.460Z,16.48
2023-02-24T01:20:15.922Z,17.95
2023-02-24T01:21:19.872Z,16.98
2023-02-24T01:22:23.838Z,18.05
2023-02-24T01:23:26.027Z,18.02
2023-02-24T01:24:29.529Z,17.17
2023-02-24T01:25:31.352Z,17.42
2023-02-24T01:26:34.336Z,17.38
2023-02-24T01:27:37.148Z,17.20
2023-02-24T01:28:40.070Z,16.20
2023-02-24T01:29:41.869Z,16.67
2023-02-24T01:30:45.055Z,17.00
2023-02-24T01:31:49.517Z,16.63
2023-02-24T01:32:54.099Z,17.73
2023-02-24T01:33:56.394Z,17.55
2023-02-24T01:35:00.621Z,17.00
2023-02-24T01:36:09.413Z,17.25
2023-02-24T01:37:16.357Z,17.17
2023-02-24T01:38:23.047Z,17.38
2023-02-24T01:39:26.168Z,15.93
2023-02-24T01:40:29.151Z,19.35
2023-02-24T01:41:31.447Z,17.83
2023-02-24T01:42:33.321Z,18.55
2023-02-24T01:43:58.800Z,17.98
2023-02-24T01:45:06.636Z,17.20
2023-02-24T01:46:13.487Z,16.40
2023-02-24T01:47:16.206Z,17.15
2023-02-24T01:48:21.887Z,16.73
2023-02-24T01:49:29.418Z,17.42
2023-02-24T01:50:35.838Z,17.25
2023-02-24T01:51:41.964Z,16.85
2023-02-24T01:52:46.964Z,16.08
2023-02-24T01:53:49.383Z,17.88
2023-02-24T01:54:56.397Z,17.02
2023-02-24T01:55:59.345Z,16.58
2023-02-24T01:57:01.868Z,15.52
2023-02-24T01:58:07.228Z,16.10
2023-02-24T01:59:10.084Z,16.45
2023-02-24T02:00:32.604Z,15.93
2023-02-24T02:01:40.574Z,16.95
2023-02-24T02:02:47.396Z,16.67
2023-02-24T02:03:49.898Z,16.25
2023-02-24T02:04:57.273Z,15.18
2023-02-24T02:06:05.229Z,16.27
2023-02-24T02:07:09.967Z,14.75
2023-02-24T02:08:14.465Z,16.73
2023-02-24T02:09:16.513Z,15.65
2023-02-24T02:10:19.375Z,16.92
2023-02-24T02:11:22.847Z,16.17
2023-02-24T02:12:25.006Z,15.93
2023-02-24T02:13:28.893Z,16.95
2023-02-24T02:14:31.385Z,16.45
2023-02-24T02:15:37.912Z,15.82
2023-02-24T02:16:58.756Z,16.25
2023-02-24T02:18:06.834Z,16.27
2023-02-24T02:19:32.026Z,16.05
2023-02-24T02:21:05.048Z,17.52
2023-02-24T02:22:17.011Z,15.85
2023-02-24T02:23:33.895Z,16.73
2023-02-24T02:24:52.880Z,17.70
2023-02-24T02:26:09.646Z,16.25
2023-02-24T02:27:29.633Z,17.20
2023-02-24T02:28:45.437Z,15.90
2023-02-24T02:30:24.422Z,17.90
2023-02-24T02:31:50.787Z,15.82
2023-02-24T02:33:27.680Z,17.05
2023-02-24T02:34:38.068Z,15.90
2023-02-24T02:35:46.388Z,16.20
2023-02-24T02:36:55.793Z,15.90
2023-02-24T02:38:03.310Z,16.30
2023-02-24T02:39:13.009Z,16.38
2023-02-24T02:40:19.341Z,16.67
2023-02-24T02:41:28.378Z,17.00
2023-02-24T02:42:34.125Z,16.05
2023-02-24T02:43:41.422Z,15.50
2023-02-24T02:45:05.649Z,16.08
2023-02-24T02:46:14.903Z,15.75
2023-02-24T02:47:24.870Z,16.30
2023-02-24T02:48:31.166Z,16.63
2023-02-24T02:49:38.821Z,15.13
2023-02-24T02:50:45.914Z,15.20
2023-02-24T02:51:52.604Z,15.60
2023-02-24T02:52:58.371Z,15.35
2023-02-24T02:54:03.332Z,15.52
2023-02-24T02:55:08.311Z,15.43
2023-02-24T02:56:14.181Z,15.75
2023-02-24T02:57:18.778Z,15.68
2023-02-24T02:58:26.215Z,16.13
2023-02-24T02:59:29.921Z,15.18
2023-02-24T03:00:35.228Z,15.70
2023-02-24T03:01:39.103Z,15.80
2023-02-24T03:02:46.414Z,15.75
2023-02-24T03:03:51.524Z,14.32
2023-02-24T03:04:59.662Z,16.02
2023-02-24T03:06:04.119Z,16.38
2023-02-24T03:07:07.620Z,16.38
2023-02-24T03:08:11.553Z,15.50
2023-02-24T03:09:19.437Z,16.92
2023-02-24T03:10:27.830Z,15.10
2023-02-24T03:11:32.489Z,15.52
2023-02-24T03:12:34.397Z,15.95
2023-02-24T03:13:41.028Z,15.93
2023-02-24T03:14:50.985Z,14.60
2023-02-24T03:15:54.726Z,15.38
2023-02-24T03:16:58.971Z,15.88
2023-02-24T03:18:10.175Z,15.23
2023-02-24T03:19:13.849Z,14.45
2023-02-24T03:20:22.537Z,15.73
2023-02-24T03:21:29.383Z,14.27
2023-02-24T03:22:35.417Z,15.35
2023-02-24T03:23:40.895Z,14.75
2023-02-24T03:24:44.506Z,14.95
2023-02-24T03:25:58.688Z,14.95
2023-02-24T03:27:08.189Z,13.48
2023-02-24T03:28:16.595Z,15.05
2023-02-24T03:29:24.312Z,14.10
2023-02-24T03:30:32.462Z,14.85
2023-02-24T03:31:41.007Z,13.95
2023-02-24T03:32:54.952Z,14.45
2023-02-24T03:34:03.810Z,15.20
2023-02-24T03:35:11.085Z,15.85
2023-02-24T03:36:16.086Z,16.05
2023-02-24T03:37:25.494Z,15.32
2023-02-24T03:38:30.850Z,15.63
2023-02-24T03:39:33.213Z,16.25
2023-02-24T03:40:43.875Z,15.15
2023-02-24T03:41:56.135Z,16.80
2023-02-24T03:43:05.373Z,17.02
2023-02-24T03:44:11.021Z,16.92
2023-02-24T03:45:16.285Z,17.48
2023-02-24T03:46:18.581Z,17.38
2023-02-24T03:47:21.807Z,17.88
2023-02-24T03:48:25.171Z,18.05
2023-02-24T03:49:28.264Z,17.60
2023-02-24T03:50:32.097Z,19.10
2023-02-24T03:51:39.648Z,19.30
2023-02-24T03:52:47.386Z,18.08
2023-02-24T03:54:01.778Z,19.48
2023-02-24T03:55:21.285Z,20.30
2023-02-24T03:56:30.180Z,19.20
2023-02-24T03:57:54.718Z,19.40
2023-02-24T03:59:25.167Z,20.17
2023-02-24T04:00:35.274Z,20.60
2023-02-24T04:01:44.572Z,20.13
2023-02-24T04:02:51.123Z,20.88
2023-02-24T04:04:00.316Z,20.83
2023-02-24T04:05:24.411Z,20.23
2023-02-24T04:06:35.829Z,20.33
2023-02-24T04:07:43.965Z,19.05
2023-02-24T04:08:48.817Z,20.05
2023-02-24T04:09:58.140Z,19.92
2023-02-24T04:11:05.185Z,18.92
2023-02-24T04:12:17.217Z,18.63
2023-02-24T04:13:28.300Z,19.95
2023-02-24T04:14:35.908Z,19.67
2023-02-24T04:15:43.679Z,19.35
2023-02-24T04:16:54.128Z,20.10
2023-02-24T04:17:57.666Z,20.15
2023-02-24T04:19:05.957Z,19.80
2023-02-24T04:20:13.494Z,19.42
2023-02-24T04:21:22.723Z,20.23
2023-02-24T04:22:26.602Z,20.42
2023-02-24T04:23:33.019Z,20.60
2023-02-24T04:24:36.338Z,21.55
2023-02-24T04:25:39.945Z,21.77
2023-02-24T04:27:02.234Z,20.63
2023-02-24T04:28:10.057Z,22.92
2023-02-24T04:29:19.533Z,21.70
2023-02-24T04:30:23.897Z,22.55
2023-02-24T04:31:27.611Z,22.50
2023-02-24T04:32:31.603Z,24.42
2023-02-24T04:33:33.793Z,24.05
2023-02-24T04:34:37.530Z,23.67
2023-02-24T04:35:40.487Z,24.00
2023-02-24T04:36:49.456Z,23.38
2023-02-24T04:37:52.528Z,25.23
2023-02-24T04:38:56.784Z,24.75
2023-02-24T04:39:58.729Z,23.50
2023-02-24T04:41:04.430Z,23.35
2023-02-24T04:42:06.683Z,24.00
2023-02-24T04:43:09.735Z,24.70
2023-02-24T04:44:11.701Z,24.73
2023-02-24T04:45:16.471Z,24.02
2023-02-24T04:46:18.921Z,25.02
2023-02-24T04:47:22.277Z,23.27
2023-02-24T04:48:24.028Z,24.60
2023-02-24T04:49:27.035Z,23.75
2023-02-24T04:50:30.718Z,24.83
2023-02-24T04:51:33.964Z,24.15
2023-02-24T04:52:35.757Z,24.50
2023-02-24T04:53:38.803Z,24.02
2023-02-24T04:54:44.479Z,22.92
2023-02-24T04:55:49.246Z,23.05
2023-02-24T04:56:51.781Z,23.17
2023-02-24T04:57:54.841Z,22.30
2023-02-24T04:58:57.001Z,23.45
2023-02-24T04:59:59.828Z,23.55
2023-02-24T05:01:08.735Z,21.77
2023-02-24T05:02:13.220Z,22.35
2023-02-24T05:03:16.769Z,22.52
2023-02-24T05:04:19.778Z,21.38
2023-02-24T05:05:25.503Z,21.55
2023-02-24T05:06:28.378Z,23.27
2023-02-24T05:07:30.152Z,23.60
2023-02-24T05:08:33.925Z,22.17
2023-02-24T05:09:35.984Z,24.23
2023-02-24T05:10:43.407Z,24.58
2023-02-24T05:11:49.055Z,24.67
2023-02-24T05:12:51.004Z,25.08
2023-02-24T05:13:53.931Z,24.75
2023-02-24T05:14:55.663Z,25.55
2023-02-24T05:16:00.036Z,26.35
2023-02-24T05:17:03.302Z,26.98
2023-02-24T05:18:07.708Z,27.17
2023-02-24T05:19:28.488Z,26.48
2023-02-24T05:20:48.621Z,27.58
2023-02-24T05:21:51.561Z,26.67
2023-02-24T05:22:53.519Z,28.48
2023-02-24T05:23:59.145Z,27.30
2023-02-24T05:25:01.259Z,27.95
2023-02-24T05:26:08.562Z,26.33
2023-02-24T05:27:10.526Z,25.70
2023-02-24T05:28:13.669Z,27.33
2023-02-24T05:29:15.426Z,25.92
2023-02-24T05:30:19.088Z,25.58
2023-02-24T05:31:40.476Z,26.25
2023-02-24T05:32:42.798Z,25.20
2023-02-24T05:33:48.389Z,26.50
2023-02-24T05:34:51.805Z,28.20
2023-02-24T05:35:53.608Z,29.30
2023-02-24T05:36:56.374Z,26.95
2023-02-24T05:37:59.211Z,27.23
2023-02-24T05:39:07.774Z,28.02
2023-02-24T05:40:14.693Z,27.65
2023-02-24T05:41:19.054Z,24.77
2023-02-24T05:42:21.947Z,25.33
2023-02-24T05:43:26.177Z,25.17
2023-02-24T05:44:28.928Z,24.15
2023-02-24T05:45:31.505Z,23.65
2023-02-24T05:46:36.587Z,24.38
2023-02-24T05:47:40.103Z,23.13
2023-02-24T05:48:43.882Z,25.13
2023-02-24T05:49:48.050Z,24.10
2023-02-24T05:50:52.245Z,24.13
2023-02-24T05:51:57.461Z,26.48
2023-02-24T05:52:59.259Z,24.00
2023-02-24T05:54:04.696Z,26.23
2023-02-24T05:55:07.295Z,24.88
2023-02-24T05:56:10.239Z,27.20
2023-02-24T05:57:16.968Z,26.95
2023-02-24T05:58:19.778Z,27.50
2023-02-24T05:59:21.634Z,27.02
2023-02-24T06:00:25.930Z,27.15
2023-02-24T06:01:30.221Z,26.90
2023-02-24T06:02:37.575Z,29.25
2023-02-24T06:03:41.346Z,27.48
2023-02-24T06:04:53.792Z,28.98
2023-02-24T06:05:55.633Z,27.00
2023-02-24T06:06:58.378Z,28.38
2023-02-24T06:08:06.214Z,28.73
2023-02-24T06:09:10.944Z,27.35
2023-02-24T06:10:15.245Z,27.67
2023-02-24T06:11:19.229Z,28.83
2023-02-24T06:12:28.022Z,27.92
2023-02-24T06:13:29.803Z,26.67
2023-02-24T06:14:34.128Z,28.00
2023-02-24T06:15:37.491Z,27.73
2023-02-24T06:16:43.487Z,27.13
2023-02-24T06:17:45.407Z,25.83
2023-02-24T06:18:49.847Z,27.23
2023-02-24T06:19:54.198Z,27.08
2023-02-24T06:20:56.025Z,24.50
2023-02-24T06:22:01.620Z,24.83
2023-02-24T06:23:05.331Z,25.55
2023-02-24T06:24:14.393Z,24.58
2023-02-24T06:25:18.485Z,25.35
2023-02-24T06:26:21.627Z,24.77
2023-02-24T06:27:25.454Z,24.38
2023-02-24T06:28:28.420Z,25.63
2023-02-24T06:29:30.694Z,25.40
2023-02-24T06:30:33.554Z,25.88
2023-02-24T06:31:35.459Z,27.30
2023-02-24T06:32:38.520Z,28.67
2023-02-24T06:33:41.013Z,25.65
2023-02-24T06:34:43.744Z,25.23
2023-02-24T06:35:45.496Z,23.88
2023-02-24T06:36:49.030Z,23.35
2023-02-24T06:37:50.848Z,24.58
2023-02-24T06:38:54.206Z,22.67
2023-02-24T06:39:56.197Z,24.23
2023-02-24T06:40:59.036Z,23.80
2023-02-24T06:42:03.895Z,23.75
2023-02-24T06:43:10.102Z,23.42
2023-02-24T06:44:11.840Z,23.80
2023-02-24T06:45:15.219Z,24.27
2023-02-24T06:46:17.478Z,24.30
2023-02-24T06:47:22.633Z,23.27
2023-02-24T06:48:24.640Z,22.88
2023-02-24T06:49:27.722Z,26.85
2023-02-24T06:50:30.958Z,25.40
2023-02-24T06:51:33.701Z,27.20
2023-02-24T06:52:36.873Z,30.63
2023-02-24T06:53:43.557Z,29.08
2023-02-24T06:54:48.677Z,27.52
2023-02-24T06:56:14.845Z,24.45
2023-02-24T06:57:18.061Z,25.75
2023-02-24T06:58:24.195Z,25.02
2023-02-24T06:59:28.751Z,25.30
2023-02-24T07:00:38.830Z,24.60
2023-02-24T07:01:45.306Z,23.42
2023-02-24T07:02:48.248Z,25.05
2023-02-24T07:04:17.585Z,24.10
2023-02-24T07:05:24.170Z,25.30
2023-02-24T07:06:28.536Z,24.50
2023-02-24T07:07:31.308Z,25.83
2023-02-24T07:08:33.163Z,25.48
2023-02-24T07:09:36.450Z,23.70
2023-02-24T07:10:39.154Z,24.02
2023-02-24T07:11:46.611Z,26.23
2023-02-24T07:12:48.565Z,24.20
2023-02-24T07:13:54.537Z,23.20
2023-02-24T07:14:57.270Z,23.40
2023-02-24T07:16:00.217Z,23.92
2023-02-24T07:17:03.696Z,25.67
2023-02-24T07:18:07.188Z,23.58
2023-02-24T07:19:13.923Z,23.35
2023-02-24T07:20:26.138Z,24.48
2023-02-24T07:21:30.221Z,23.50
2023-02-24T07:22:33.062Z,24.02
2023-02-24T07:23:34.897Z,22.13
2023-02-24T07:24:40.487Z,23.80
2023-02-24T07:25:43.391Z,22.10
2023-02-24T07:26:52.030Z,22.83
2023-02-24T07:27:53.788Z,23.15
2023-02-24T07:28:58.066Z,24.02
2023-02-24T07:29:59.855Z,21.42
2023-02-24T07:31:08.403Z,22.05
2023-02-24T07:32:11.707Z,21.83
2023-02-24T07:33:14.242Z,22.38
2023-02-24T07:34:23.485Z,21.55
2023-02-24T07:35:25.681Z,22.55
2023-02-24T07:36:30.194Z,22.02
2023-02-24T07:37:34.828Z,21.95
2023-02-24T07:38:37.241Z,20.55
2023-02-24T07:39:42.892Z,21.15
2023-02-24T07:40:46.855Z,22.63
2023-02-24T07:41:49.993Z,21.23
2023-02-24T07:42:54.078Z,19.88
2023-02-24T07:43:59.622Z,21.80
2023-02-24T07:45:01.497Z,21.35
2023-02-24T07:46:09.182Z,21.85
2023-02-24T07:47:11.977Z,23.05
2023-02-24T07:48:15.635Z,22.77
2023-02-24T07:49:19.839Z,22.13
2023-02-24T07:50:23.719Z,22.05
2023-02-24T07:51:27.368Z,22.63
2023-02-24T07:52:32.483Z,24.17
2023-02-24T07:53:34.381Z,23.92
2023-02-24T07:54:39.275Z,25.45
2023-02-24T07:55:42.352Z,22.98
2023-02-24T07:56:48.825Z,25.00
2023-02-24T07:57:51.704Z,23.67
2023-02-24T07:58:59.224Z,23.25
2023-02-24T08:00:16.915Z,23.65
2023-02-24T08:01:23.750Z,24.25
2023-02-24T08:02:25.685Z,23.33
2023-02-24T08:03:30.159Z,23.50
2023-02-24T08:04:33.445Z,24.85
2023-02-24T08:05:36.497Z,23.67
2023-02-24T08:06:46.154Z,25.25
2023-02-24T08:07:50.495Z,23.52
2023-02-24T08:08:59.719Z,24.95
2023-02-24T08:10:14.231Z,24.25
2023-02-24T08:11:16.399Z,24.15
2023-02-24T08:12:21.728Z,23.88
2023-02-24T08:13:23.804Z,24.58
2023-02-24T08:14:32.710Z,25.23
2023-02-24T08:15:35.987Z,24.10
2023-02-24T08:16:40.597Z,25.48
2023-02-24T08:17:44.101Z,25.23
2023-02-24T08:18:48.993Z,25.15
2023-02-24T08:20:12.841Z,25.27
2023-02-24T08:21:16.607Z,24.90
2023-02-24T08:22:24.059Z,24.13
2023-02-24T08:23:26.781Z,23.83
2023-02-24T08:24:30.016Z,25.10
2023-02-24T08:25:36.521Z,25.75
2023-02-24T08:26:45.053Z,23.73
2023-02-24T08:28:06.708Z,24.70
2023-02-24T08:29:10.434Z,26.38
2023-02-24T08:30:23.375Z,26.05
2023-02-24T08:31:27.898Z,25.95
2023-02-24T08:32:34.085Z,26.67
2023-02-24T08:33:37.377Z,25.88
2023-02-24T08:34:39.510Z,26.10
2023-02-24T08:35:44.720Z,25.95
2023-02-24T08:36:55.742Z,26.10
2023-02-24T08:38:01.693Z,27.35
2023-02-24T08:39:04.877Z,26.85
2023-02-24T08:40:29.383Z,27.63
2023-02-24T08:41:45.876Z,27.63
2023-02-24T08:42:50.042Z,27.33
2023-02-24T08:43:52.828Z,26.92
2023-02-24T08:44:54.807Z,27.98
2023-02-24T08:45:59.481Z,27.63
2023-02-24T08:47:05.211Z,28.33
2023-02-24T08:48:18.294Z,28.30
2023-02-24T08:49:24.880Z,29.17
2023-02-24T08:50:31.314Z,29.38
2023-02-24T08:51:36.369Z,26.38
2023-02-24T08:52:40.183Z,28.00
2023-02-24T08:53:43.425Z,26.48
2023-02-24T08:54:49.222Z,27.00
2023-02-24T08:55:51.810Z,28.13
2023-02-24T08:56:56.850Z,28.98
2023-02-24T08:58:01.660Z,27.73
2023-02-24T08:59:06.388Z,29.20
2023-02-24T09:00:10.863Z,28.60
2023-02-24T09:01:18.991Z,27.05
2023-02-24T09:02:27.418Z,28.95
2023-02-24T09:03:30.108Z,27.42
2023-02-24T09:04:34.509Z,28.08
2023-02-24T09:05:39.076Z,29.67
2023-02-24T09:06:44.738Z,27.02
2023-02-24T09:07:54.524Z,28.48
2023-02-24T09:09:15.922Z,27.27
2023-02-24T09:10:20.298Z,27.77
2023-02-24T09:11:23.305Z,27.77
2023-02-24T09:12:29.002Z,27.75
2023-02-24T09:13:33.065Z,27.10
2023-02-24T09:14:37.528Z,27.20
2023-02-24T09:15:41.776Z,28.73
2023-02-24T09:17:02.113Z,29.77
2023-02-24T09:18:08.319Z,28.02
2023-02-24T09:19:40.369Z,27.13
2023-02-24T09:21:16.080Z,27.95
2023-02-24T09:22:31.374Z,27.23
2023-02-24T09:23:45.845Z,28.35
2023-02-24T09:24:50.965Z,29.35
2023-02-24T09:25:54.334Z,30.88
2023-02-24T09:26:58.611Z,29.02
2023-02-24T09:28:08.398Z,31.40
2023-02-24T09:29:33.064Z,30.98
2023-02-24T09:30:37.578Z,31.45
2023-02-24T09:31:55.280Z,29.50
2023-02-24T09:33:01.240Z,29.55
2023-02-24T09:34:05.612Z,45.80
2023-02-24T09:35:07.914Z,73.95
2023-02-24T09:36:13.735Z,31.67
2023-02-24T09:37:24.923Z,86.97
2023-02-24T09:38:57.803Z,36.97
2023-02-24T09:40:14.628Z,56.00
2023-02-24T09:41:33.662Z,58.20
2023-02-24T09:42:46.416Z,29.08
2023-02-24T09:43:59.844Z,58.63
2023-02-24T09:45:04.987Z,29.00
2023-02-24T09:46:14.729Z,34.25
2023-02-24T09:47:30.948Z,26.48
2023-02-24T09:48:44.632Z,27.70
2023-02-24T09:49:56.387Z,30.85
2023-02-24T09:51:05.194Z,38.70
2023-02-24T09:52:16.852Z,38.05
2023-02-24T09:53:19.893Z,27.90
2023-02-24T09:54:24.436Z,34.97
2023-02-24T09:55:35.753Z,33.67
2023-02-24T09:56:42.644Z,29.20
2023-02-24T09:58:12.036Z,30.92
2023-02-24T09:59:26.294Z,28.98
2023-02-24T10:00:33.545Z,67.22
2023-02-24T10:01:47.861Z,45.38
2023-02-24T10:03:00.188Z,50.05
2023-02-24T10:04:20.231Z,46.05
2023-02-24T10:05:28.760Z,36.60
2023-02-24T10:06:36.564Z,29.83
2023-02-24T10:07:41.807Z,27.08
2023-02-24T10:08:50.725Z,26.73
2023-02-24T10:10:02.278Z,31.35
2023-02-24T10:11:08.552Z,47.00
2023-02-24T10:12:17.209Z,46.17
2023-02-24T10:13:30.264Z,41.97
2023-02-24T10:14:43.704Z,27.08
2023-02-24T10:16:09.267Z,26.20
2023-02-24T10:17:30.491Z,27.55
2023-02-24T10:18:37.918Z,33.88
2023-02-24T10:19:41.580Z,29.17
2023-02-24T10:20:45.702Z,27.75
2023-02-24T10:22:02.825Z,34.60
2023-02-24T10:23:09.738Z,31.83
2023-02-24T10:24:15.691Z,27.77
2023-02-24T10:25:36.650Z,31.00
2023-02-24T10:26:59.531Z,36.38
2023-02-24T10:28:13.219Z,31.95
2023-02-24T10:29:23.009Z,30.88
2023-02-24T10:30:41.056Z,25.45
2023-02-24T10:31:48.019Z,24.92
2023-02-24T10:32:53.383Z,26.17
2023-02-24T10:33:58.706Z,31.20
2023-02-24T10:35:01.521Z,26.55
2023-02-24T10:36:11.489Z,26.30
2023-02-24T10:37:27.624Z,26.58
2023-02-24T10:38:34.076Z,32.35
2023-02-24T10:39:36.980Z,29.52
2023-02-24T10:40:46.763Z,26.23
2023-02-24T10:41:57.204Z,23.55
2023-02-24T10:43:10.440Z,26.67
2023-02-24T10:44:16.420Z,24.65
2023-02-24T10:45:24.751Z,24.70
2023-02-24T10:46:41.068Z,24.15
2023-02-24T10:47:46.387Z,24.42
2023-02-24T10:49:00.428Z,29.08
2023-02-24T10:50:05.287Z,29.70
2023-02-24T10:51:20.092Z,24.65
2023-02-24T10:52:37.568Z,26.40
2023-02-24T10:53:39.475Z,26.50
2023-02-24T10:55:05.105Z,24.30
2023-02-24T10:56:26.919Z,24.15
2023-02-24T10:57:42.618Z,24.02
2023-02-24T10:59:20.487Z,25.20
2023-02-24T11:00:51.609Z,24.10
2023-02-24T11:02:01.117Z,24.25
2023-02-24T11:03:10.436Z,25.98
2023-02-24T11:04:32.845Z,25.27
2023-02-24T11:05:44.388Z,25.13
2023-02-24T11:06:55.480Z,27.55
2023-02-24T11:08:10.933Z,25.42
2023-02-24T11:09:29.266Z,25.98
2023-02-24T11:10:43.018Z,25.60
2023-02-24T11:12:04.759Z,27.20
2023-02-24T11:13:25.205Z,27.38
2023-02-24T11:14:45.693Z,24.85
2023-02-24T11:16:07.600Z,26.13
2023-02-24T11:17:20.989Z,24.27
2023-02-24T11:18:24.798Z,26.00
2023-02-24T11:19:32.482Z,24.67
2023-02-24T11:20:48.455Z,24.33
2023-02-24T11:21:55.688Z,24.58
2023-02-24T11:22:57.848Z,24.00
2023-02-24T11:24:03.112Z,25.15
2023-02-24T11:25:07.524Z,25.30
2023-02-24T11:26:16.799Z,24.48
2023-02-24T11:27:21.860Z,24.27
2023-02-24T11:28:34.132Z,24.05
2023-02-24T11:29:45.058Z,22.92
2023-02-24T11:30:54.614Z,22.52
2023-02-24T11:32:11.636Z,23.20
2023-02-24T11:33:24.749Z,25.75
2023-02-24T11:34:33.267Z,21.90
2023-02-24T11:35:38.708Z,23.45
2023-02-24T11:36:46.164Z,20.13
2023-02-24T11:38:00.422Z,20.67
2023-02-24T11:39:19.267Z,22.42
2023-02-24T11:40:26.689Z,18.45
2023-02-24T11:41:31.228Z,18.33
2023-02-24T11:42:38.906Z,17.67
2023-02-24T11:43:43.600Z,17.67
2023-02-24T11:44:53.813Z,18.85
2023-02-24T11:46:01.185Z,20.55
2023-02-24T11:47:07.792Z,18.90
2023-02-24T11:48:15.975Z,18.10
2023-02-24T11:49:27.300Z,21.70
2023-02-24T11:50:36.124Z,16.75
2023-02-24T11:51:38.148Z,17.02
2023-02-24T11:52:46.913Z,18.13
2023-02-24T11:53:53.220Z,17.15
2023-02-24T11:54:58.662Z,17.35
2023-02-24T11:56:03.136Z,18.95
2023-02-24T11:57:09.322Z,17.20
2023-02-24T11:58:17.152Z,17.63
2023-02-24T11:59:23.258Z,17.88
2023-02-24T12:00:27.986Z,18.25
2023-02-24T12:01:33.716Z,17.73
2023-02-24T12:02:42.003Z,18.25
2023-02-24T12:03:54.658Z,18.63
2023-02-24T12:05:00.627Z,18.02
2023-02-24T12:06:10.892Z,16.95
2023-02-24T12:07:19.338Z,16.80
2023-02-24T12:08:26.806Z,17.00
2023-02-24T12:09:33.074Z,16.67
2023-02-24T12:10:37.810Z,17.08
2023-02-24T12:11:46.084Z,17.08
2023-02-24T12:12:52.793Z,16.70
2023-02-24T12:14:03.137Z,18.30
2023-02-24T12:15:15.553Z,14.82
2023-02-24T12:16:21.315Z,16.33
2023-02-24T12:17:29.249Z,15.45
2023-02-24T12:18:35.365Z,15.05
2023-02-24T12:19:44.578Z,14.63
2023-02-24T12:20:49.922Z,14.63
2023-02-24T12:21:53.714Z,13.98
2023-02-24T12:22:58.386Z,14.57
2023-02-24T12:24:21.277Z,15.13
2023-02-24T12:25:27.954Z,14.63
2023-02-24T12:26:42.585Z,15.23
2023-02-24T12:27:54.740Z,14.15
2023-02-24T12:29:20.045Z,13.95
2023-02-24T12:30:57.638Z,13.88
2023-02-24T12:32:06.596Z,14.48
2023-02-24T12:33:31.832Z,13.27
2023-02-24T12:34:43.376Z,14.73
2023-02-24T12:35:48.225Z,13.38
2023-02-24T12:37:07.597Z,13.93
2023-02-24T12:38:31.776Z,14.80
2023-02-24T12:39:40.234Z,12.52
2023-02-24T12:40:51.339Z,14.15
2023-02-24T12:42:01.198Z,13.43
2023-02-24T12:43:13.690Z,13.63
2023-02-24T12:44:24.194Z,13.15
2023-02-24T12:45:34.150Z,13.52
2023-02-24T12:46:38.133Z,13.93
2023-02-24T12:47:48.369Z,14.95
2023-02-24T12:49:15.552Z,15.50
2023-02-24T12:50:25.410Z,20.73
2023-02-24T12:51:30.668Z,16.70
2023-02-24T12:52:42.740Z,16.30
2023-02-24T12:53:49.774Z,16.67
2023-02-24T12:54:56.702Z,16.73
2023-02-24T12:56:05.039Z,16.30
2023-02-24T12:57:11.833Z,17.35
2023-02-24T12:58:18.690Z,18.08
2023-02-24T12:59:24.367Z,20.95
2023-02-24T13:00:56.157Z,19.83
2023-02-24T13:02:01.673Z,19.17
2023-02-24T13:03:09.500Z,19.25
2023-02-24T13:04:23.364Z,19.60
2023-02-24T13:05:31.030Z,18.15
2023-02-24T13:06:42.890Z,17.98
2023-02-24T13:07:59.945Z,18.67
2023-02-24T13:09:08.595Z,18.73
2023-02-24T13:10:20.283Z,19.23
2023-02-24T13:11:31.248Z,19.35
2023-02-24T13:12:37.535Z,19.23
2023-02-24T13:13:44.805Z,19.98
2023-02-24T13:14:48.662Z,20.17
2023-02-24T13:15:52.665Z,20.15
2023-02-24T13:17:05.312Z,20.35
2023-02-24T13:18:11.317Z,19.45
2023-02-24T13:19:22.460Z,19.63
2023-02-24T13:20:31.485Z,19.90
2023-02-24T13:21:34.168Z,19.42
2023-02-24T13:22:41.972Z,20.63
2023-02-24T13:23:53.461Z,18.80
2023-02-24T13:24:59.053Z,18.88
2023-02-24T13:26:01.038Z,18.92
2023-02-24T13:27:22.220Z,19.92
2023-02-24T13:28:26.110Z,19.80
2023-02-24T13:29:27.923Z,19.73
2023-02-24T13:30:41.492Z,19.80
2023-02-24T13:31:47.022Z,19.48
2023-02-24T13:32:59.958Z,20.42
2023-02-24T13:34:32.932Z,18.20
2023-02-24T13:35:37.517Z,18.98
2023-02-24T13:36:47.632Z,18.92
2023-02-24T13:37:49.789Z,19.25
2023-02-24T13:38:53.476Z,19.25
2023-02-24T13:39:55.763Z,20.38
2023-02-24T13:41:08.230Z,21.20
2023-02-24T13:42:23.674Z,20.25
2023-02-24T13:43:28.824Z,18.20
2023-02-24T13:44:31.887Z,21.35
2023-02-24T13:45:35.615Z,20.83
2023-02-24T13:46:52.041Z,22.42
2023-02-24T13:48:15.177Z,19.60
2023-02-24T13:49:25.136Z,20.13
2023-02-24T13:50:31.853Z,19.67
2023-02-24T13:51:47.606Z,22.30
2023-02-24T13:53:03.752Z,19.88
2023-02-24T13:54:17.761Z,20.73
2023-02-24T13:55:29.875Z,20.48
2023-02-24T13:56:38.944Z,21.98
2023-02-24T13:57:53.374Z,20.05
2023-02-24T13:59:08.492Z,21.27
2023-02-24T14:00:22.398Z,21.33
2023-02-24T14:01:34.282Z,22.58
2023-02-24T14:02:38.683Z,23.63
2023-02-24T14:03:44.174Z,23.70
2023-02-24T14:04:47.972Z,24.50
2023-02-24T14:05:51.396Z,22.95
2023-02-24T14:06:57.460Z,23.40
2023-02-24T14:07:59.554Z,24.15
2023-02-24T14:09:03.801Z,24.15
2023-02-24T14:10:15.953Z,24.80
2023-02-24T14:11:19.140Z,26.67
2023-02-24T14:12:24.502Z,26.95
2023-02-24T14:13:33.908Z,25.95
2023-02-24T14:14:35.793Z,24.95
2023-02-24T14:15:41.189Z,26.58
2023-02-24T14:16:48.078Z,29.23
2023-02-24T14:17:56.220Z,27.33
2023-02-24T14:19:01.665Z,27.20
2023-02-24T14:20:19.586Z,26.92
2023-02-24T14:21:24.406Z,27.52
2023-02-24T14:22:27.216Z,26.30
2023-02-24T14:23:31.561Z,28.48
2023-02-24T14:24:34.545Z,26.83
2023-02-24T14:25:40.518Z,28.38
2023-02-24T14:26:45.690Z,29.02
2023-02-24T14:27:49.992Z,29.20
2023-02-24T14:28:57.592Z,28.88
2023-02-24T14:30:00.601Z,29.23
2023-02-24T14:31:08.271Z,28.33